Time;durP1;ratioP1;P1;durP2;ratioP2;P2;SDS_P1;SDS_P2;PMS_P1;PMS_P2;Temp;Humidity;BMP_temperature;BMP_pressure;BME280_temperature;BME280_humidity;BME280_pressure;Samples;Min_cycle;Max_cycle;Signal;HPM_P1;HPM_P2
2021/11/06 00:01:17;;;;;;;4.35;2.55;;;8.90;83.20;;;;;;5031329;28;20026;-76
2021/11/06 00:03:43;;;;;;;6.00;2.85;;;8.90;83.30;;;;;;5034247;28;20023;-76
2021/11/06 00:06:09;;;;;;;4.55;2.35;;;8.90;83.40;;;;;;5020370;28;20033;-75
2021/11/06 00:08:34;;;;;;;4.18;2.38;;;8.90;83.40;;;;;;5022257;28;20025;-75
2021/11/06 00:11:00;;;;;;;6.15;2.80;;;8.90;83.40;;;;;;5026161;28;20025;-75
2021/11/06 00:13:25;;;;;;;4.47;2.65;;;8.80;83.30;;;;;;5019820;28;20038;-75
2021/11/06 00:15:51;;;;;;;3.13;2.05;;;8.80;83.40;;;;;;5020627;28;20160;-74
2021/11/06 00:18:16;;;;;;;4.50;2.50;;;8.80;83.40;;;;;;5028962;28;20165;-74
2021/11/06 00:20:42;;;;;;;3.22;2.33;;;8.80;84.00;;;;;;5022148;28;20022;-74
2021/11/06 00:23:08;;;;;;;3.20;2.38;;;8.80;83.50;;;;;;5051353;28;20420;-74
2021/11/06 00:25:33;;;;;;;4.65;2.67;;;8.80;83.40;;;;;;5023365;28;20049;-73
2021/11/06 00:27:59;;;;;;;4.30;2.83;;;8.70;83.40;;;;;;5033170;28;20030;-74
2021/11/06 00:30:24;;;;;;;5.03;2.88;;;8.70;83.40;;;;;;5023959;28;20404;-74
2021/11/06 00:32:50;;;;;;;3.78;2.50;;;8.70;83.40;;;;;;5022037;28;20057;-74
2021/11/06 00:35:16;;;;;;;2.60;2.22;;;8.70;83.40;;;;;;5017237;28;20049;-74
2021/11/06 00:37:45;;;;;;;3.28;2.30;;;8.70;83.40;;;;;;5019529;28;20033;-73
2021/11/06 00:40:22;;;;;;;3.83;2.80;;;8.70;83.50;;;;;;5028076;28;20032;-73
2021/11/06 00:42:47;;;;;;;6.07;3.17;;;8.60;83.50;;;;;;5044693;28;20052;-74
2021/11/06 00:45:13;;;;;;;3.45;2.90;;;8.60;83.50;;;;;;5018103;28;20013;-73
2021/11/06 00:47:40;;;;;;;5.15;2.85;;;8.60;83.60;;;;;;5018043;28;20169;-74
2021/11/06 00:50:08;;;;;;;6.07;3.10;;;8.60;83.70;;;;;;5019801;28;20038;-74
2021/11/06 00:52:35;;;;;;;5.00;3.40;;;8.50;83.70;;;;;;5022263;28;20037;-73
2021/11/06 00:55:01;;;;;;;8.05;4.10;;;8.50;83.60;;;;;;5015215;28;20058;-74
2021/11/06 00:57:27;;;;;;;6.35;4.00;;;8.50;83.70;;;;;;5020970;28;20429;-74
2021/11/06 00:59:53;;;;;;;4.82;3.28;;;8.40;83.70;;;;;;5051199;28;20029;-74
2021/11/06 01:02:18;;;;;;;5.65;3.70;;;8.40;83.70;;;;;;5047318;28;20083;-74
2021/11/06 01:04:44;;;;;;;5.05;3.60;;;8.40;83.70;;;;;;5064236;28;20029;-73
2021/11/06 01:07:09;;;;;;;5.65;4.20;;;8.40;83.80;;;;;;5015368;28;20156;-74
2021/11/06 01:09:35;;;;;;;5.30;3.60;;;8.40;83.80;;;;;;5023724;28;20063;-73
2021/11/06 01:12:00;;;;;;;4.70;4.13;;;8.30;83.80;;;;;;5026988;28;20048;-73
2021/11/06 01:14:26;;;;;;;4.35;3.60;;;8.30;83.70;;;;;;5044398;28;20109;-73
2021/11/06 01:16:51;;;;;;;3.97;3.10;;;8.30;83.80;;;;;;5049232;28;20022;-73
2021/11/06 01:19:17;;;;;;;5.10;3.50;;;8.30;83.90;;;;;;5027518;28;20022;-74
2021/11/06 01:21:43;;;;;;;6.07;4.80;;;8.30;84.00;;;;;;5020828;28;20536;-74
2021/11/06 01:24:09;;;;;;;8.07;5.22;;;8.30;84.00;;;;;;5056410;28;20025;-74
2021/11/06 01:26:34;;;;;;;6.28;4.50;;;8.20;83.90;;;;;;5021347;28;20033;-74
2021/11/06 01:29:00;;;;;;;7.10;5.43;;;8.20;84.00;;;;;;5019755;28;20404;-75
2021/11/06 01:31:27;;;;;;;7.35;4.45;;;8.20;84.00;;;;;;5016439;28;20024;-74
2021/11/06 01:33:52;;;;;;;7.28;4.45;;;8.20;84.00;;;;;;5023769;28;20478;-73
2021/11/06 01:36:19;;;;;;;6.03;4.80;;;8.20;84.00;;;;;;5015165;28;20098;-74
2021/11/06 01:38:44;;;;;;;7.97;5.10;;;8.20;84.00;;;;;;5014752;28;20018;-74
2021/11/06 01:41:11;;;;;;;7.97;5.45;;;8.20;84.00;;;;;;5027820;28;20113;-74
2021/11/06 01:43:37;;;;;;;8.32;6.07;;;8.20;83.90;;;;;;5017323;28;20044;-75
2021/11/06 01:46:05;;;;;;;8.75;5.63;;;8.20;83.90;;;;;;5018476;28;20116;-74
2021/11/06 01:48:31;;;;;;;5.85;4.28;;;8.20;84.00;;;;;;5021448;28;20026;-74
2021/11/06 01:50:58;;;;;;;8.38;5.60;;;8.20;84.10;;;;;;5014784;28;20032;-73
2021/11/06 01:53:24;;;;;;;5.57;3.95;;;8.20;84.10;;;;;;5011381;28;20068;-72
2021/11/06 01:55:52;;;;;;;5.43;4.20;;;8.20;84.00;;;;;;5023590;28;20381;-73
2021/11/06 01:58:22;;;;;;;8.32;5.57;;;8.20;84.00;;;;;;5057989;28;20057;-73
2021/11/06 02:00:48;;;;;;;6.88;5.25;;;8.20;84.00;;;;;;5021990;28;20077;-74
2021/11/06 02:03:15;;;;;;;8.02;6.40;;;8.20;84.00;;;;;;5050575;28;20026;-73
2021/11/06 02:05:41;;;;;;;6.20;5.00;;;8.20;83.90;;;;;;5011814;28;20030;-73
2021/11/06 02:08:07;;;;;;;10.15;6.63;;;8.20;83.90;;;;;;5013573;28;20034;-74
2021/11/06 02:10:33;;;;;;;8.43;5.68;;;8.20;83.90;;;;;;5023201;28;20044;-74
2021/11/06 02:12:58;;;;;;;7.70;5.50;;;8.20;84.00;;;;;;5024784;28;20484;-74
2021/11/06 02:15:24;;;;;;;7.95;4.97;;;8.20;84.00;;;;;;5022605;28;20132;-74
2021/11/06 02:17:50;;;;;;;8.57;6.57;;;8.20;84.00;;;;;;5014654;28;20121;-74
2021/11/06 02:20:17;;;;;;;8.75;5.65;;;8.20;83.90;;;;;;5010748;28;20100;-74
2021/11/06 02:22:43;;;;;;;9.57;6.35;;;8.20;83.90;;;;;;5020890;28;20063;-74
2021/11/06 02:25:10;;;;;;;7.38;5.47;;;8.20;83.90;;;;;;5026365;28;20400;-74
2021/11/06 02:27:36;;;;;;;8.20;5.45;;;8.30;83.90;;;;;;5019168;28;20029;-73
2021/11/06 02:30:05;;;;;;;8.00;5.35;;;8.30;83.90;;;;;;5010966;28;20408;-74
2021/11/06 02:32:31;;;;;;;7.50;5.70;;;8.20;83.80;;;;;;5016664;28;20446;-74
2021/11/06 02:34:56;;;;;;;6.68;4.45;;;8.30;83.80;;;;;;5050750;28;20048;-74
2021/11/06 02:37:22;;;;;;;7.45;5.15;;;8.30;83.80;;;;;;5016769;28;20752;-74
2021/11/06 02:39:48;;;;;;;5.38;4.00;;;8.30;83.80;;;;;;5029534;28;20025;-73
2021/11/06 02:42:14;;;;;;;9.00;4.90;;;8.30;83.80;;;;;;5014175;28;20069;-74
2021/11/06 02:44:40;;;;;;;8.20;4.88;;;8.30;84.40;;;;;;5024940;28;20022;-74
2021/11/06 02:47:06;;;;;;;8.95;5.38;;;8.30;83.80;;;;;;5021180;28;20057;-74
2021/11/06 02:49:32;;;;;;;9.25;5.53;;;8.30;83.70;;;;;;5025399;28;20041;-74
2021/11/06 02:51:57;;;;;;;11.98;7.10;;;8.30;83.80;;;;;;5011768;28;20037;-73
2021/11/06 02:54:23;;;;;;;10.88;5.78;;;8.30;83.90;;;;;;5022823;28;20033;-73
2021/11/06 02:56:49;;;;;;;12.75;6.63;;;8.30;83.90;;;;;;5022464;28;20424;-74
2021/11/06 02:59:14;;;;;;;11.40;6.05;;;8.30;83.80;;;;;;5021069;28;20061;-73
2021/11/06 03:01:40;;;;;;;9.40;5.22;;;8.30;83.80;;;;;;5025347;28;20041;-74
2021/11/06 03:04:11;;;;;;;10.63;5.82;;;8.30;83.90;;;;;;5025515;28;20029;-73
2021/11/06 03:06:36;;;;;;;10.23;5.53;;;8.30;83.80;;;;;;5053234;28;20489;-73
2021/11/06 03:09:04;;;;;;;10.55;5.50;;;8.40;83.80;;;;;;5055482;28;20033;-73
2021/11/06 03:11:31;;;;;;;11.15;5.50;;;8.40;83.80;;;;;;5051396;28;20133;-74
2021/11/06 03:13:58;;;;;;;10.10;5.57;;;8.40;83.70;;;;;;5018242;28;20037;-73
2021/11/06 03:16:23;;;;;;;11.25;5.60;;;8.40;83.70;;;;;;5010149;28;20033;-73
2021/11/06 03:18:49;;;;;;;13.77;7.07;;;8.40;83.80;;;;;;5017362;28;20026;-73
2021/11/06 03:21:17;;;;;;;14.00;7.40;;;8.40;83.70;;;;;;5049383;28;20176;-73
2021/11/06 03:23:43;;;;;;;16.08;8.00;;;8.40;83.70;;;;;;5020714;28;20116;-73
2021/11/06 03:26:09;;;;;;;17.73;8.95;;;8.40;83.60;;;;;;5023521;28;20339;-73
2021/11/06 03:28:34;;;;;;;20.65;9.77;;;8.40;83.60;;;;;;5049444;28;20032;-73
2021/11/06 03:31:00;;;;;;;15.88;8.40;;;8.40;84.20;;;;;;5010263;28;20040;-73
2021/11/06 03:33:26;;;;;;;13.13;6.97;;;8.30;83.60;;;;;;5017845;28;20038;-72
2021/11/06 03:35:51;;;;;;;16.55;8.27;;;8.40;83.70;;;;;;5020131;28;20036;-73
2021/11/06 03:38:17;;;;;;;15.73;8.52;;;8.40;83.70;;;;;;5023308;28;20066;-73
2021/11/06 03:40:42;;;;;;;12.80;7.80;;;8.40;83.60;;;;;;5022315;28;20029;-73
2021/11/06 03:43:08;;;;;;;20.00;9.68;;;8.40;83.60;;;;;;5045592;28;20029;-73
2021/11/06 03:45:34;;;;;;;21.63;10.27;;;8.40;83.60;;;;;;5015094;28;20065;-73
2021/11/06 03:48:00;;;;;;;19.92;10.18;;;8.30;83.50;;;;;;5013508;28;20109;-73
2021/11/06 03:50:26;;;;;;;18.08;8.93;;;8.30;83.60;;;;;;5026306;28;20132;-73
2021/11/06 03:52:52;;;;;;;20.98;9.88;;;8.30;83.60;;;;;;5013347;28;20040;-72
2021/11/06 03:55:17;;;;;;;15.95;8.23;;;8.30;83.50;;;;;;5032826;28;20029;-73
2021/11/06 03:57:43;;;;;;;19.60;10.43;;;8.30;83.60;;;;;;5017129;28;20034;-73
2021/11/06 04:00:11;;;;;;;18.25;8.85;;;8.30;83.60;;;;;;5020469;28;20041;-73
2021/11/06 04:02:37;;;;;;;14.15;7.75;;;8.20;83.50;;;;;;5021525;28;20116;-73
2021/11/06 04:05:03;;;;;;;19.35;9.98;;;8.20;83.60;;;;;;5019567;28;20109;-74
2021/11/06 04:07:29;;;;;;;14.38;8.65;;;8.20;83.60;;;;;;5031338;28;20034;-74
2021/11/06 04:09:54;;;;;;;24.02;13.00;;;8.20;83.60;;;;;;5018099;28;20072;-74
2021/11/06 04:12:20;;;;;;;19.77;9.85;;;8.20;83.50;;;;;;5021138;28;20132;-73
2021/11/06 04:14:45;;;;;;;20.92;11.07;;;8.20;83.50;;;;;;5023734;28;20120;-73
2021/11/06 04:17:11;;;;;;;16.13;8.82;;;8.20;83.50;;;;;;5032101;28;20120;-73
2021/11/06 04:19:36;;;;;;;17.17;8.68;;;8.20;83.50;;;;;;5048924;28;20137;-73
2021/11/06 04:22:02;;;;;;;19.00;10.20;;;8.20;83.60;;;;;;5027133;28;20083;-73
2021/11/06 04:24:28;;;;;;;15.13;8.25;;;8.20;83.50;;;;;;5030410;28;20055;-73
2021/11/06 04:26:54;;;;;;;16.80;9.30;;;8.20;83.80;;;;;;5029252;28;20036;-73
2021/11/06 04:29:19;;;;;;;16.35;8.82;;;8.20;83.60;;;;;;5050697;28;20435;-73
2021/11/06 04:31:45;;;;;;;17.67;9.10;;;8.30;83.60;;;;;;5020458;28;20029;-72
2021/11/06 04:34:10;;;;;;;20.00;10.60;;;8.30;83.50;;;;;;5028769;28;20026;-72
2021/11/06 04:36:36;;;;;;;15.82;9.00;;;8.30;83.50;;;;;;5021533;28;20501;-73
2021/11/06 04:39:01;;;;;;;17.05;8.32;;;8.30;83.50;;;;;;5030101;28;20025;-73
2021/11/06 04:41:27;;;;;;;15.38;8.10;;;8.30;83.50;;;;;;5023023;28;20384;-73
2021/11/06 04:43:53;;;;;;;14.80;8.32;;;8.30;83.50;;;;;;5029953;28;20033;-73
2021/11/06 04:46:18;;;;;;;14.52;8.15;;;8.30;83.50;;;;;;5025631;28;20091;-73
2021/11/06 04:48:44;;;;;;;12.52;7.75;;;8.30;83.40;;;;;;5020289;28;20030;-74
2021/11/06 04:51:09;;;;;;;18.02;10.23;;;8.30;83.40;;;;;;5016499;28;20036;-74
2021/11/06 04:53:35;;;;;;;14.55;9.13;;;8.30;83.40;;;;;;5032642;28;20099;-74
2021/11/06 04:56:00;;;;;;;14.60;8.40;;;8.20;83.40;;;;;;5026228;28;20400;-74
2021/11/06 04:58:26;;;;;;;14.15;7.65;;;8.30;83.50;;;;;;5023781;28;20030;-73
2021/11/06 05:00:52;;;;;;;17.73;10.48;;;8.30;83.50;;;;;;5017302;28;20029;-74
2021/11/06 05:03:18;;;;;;;17.27;9.23;;;8.30;83.40;;;;;;5021926;28;20109;-74
2021/11/06 05:05:43;;;;;;;21.17;11.60;;;8.20;83.30;;;;;;5018096;28;20030;-74
2021/11/06 05:08:10;;;;;;;17.20;9.50;;;8.20;83.40;;;;;;5023854;28;20041;-74
2021/11/06 05:10:36;;;;;;;16.05;8.82;;;8.20;83.40;;;;;;5021825;28;20097;-76
2021/11/06 05:13:02;;;;;;;15.85;9.00;;;8.20;83.40;;;;;;5024905;28;20049;-73
2021/11/06 05:15:27;;;;;;;17.40;10.63;;;8.30;83.50;;;;;;5020437;28;20085;-73
2021/11/06 05:17:54;;;;;;;14.23;8.77;;;8.30;83.40;;;;;;5012390;28;20404;-74
2021/11/06 05:20:20;;;;;;;14.43;8.82;;;8.20;83.40;;;;;;5019528;28;20028;-74
2021/11/06 05:22:45;;;;;;;24.40;13.52;;;8.20;83.50;;;;;;5053292;28;20025;-75
2021/11/06 05:25:11;;;;;;;17.92;9.52;;;8.30;83.50;;;;;;5026125;28;20021;-74
2021/11/06 05:27:37;;;;;;;18.98;11.13;;;8.20;83.50;;;;;;5011449;28;20036;-75
2021/11/06 05:30:06;;;;;;;17.33;9.98;;;8.30;83.50;;;;;;5026644;28;20038;-75
2021/11/06 05:32:33;;;;;;;16.10;8.18;;;8.30;83.60;;;;;;5025818;28;20065;-75
2021/11/06 05:34:58;;;;;;;15.23;9.30;;;8.30;83.60;;;;;;5022625;28;20030;-75
2021/11/06 05:37:24;;;;;;;17.10;9.75;;;8.20;83.70;;;;;;5025022;28;20044;-75
2021/11/06 05:39:49;;;;;;;18.30;11.43;;;8.20;83.80;;;;;;5023249;28;20064;-73
2021/11/06 05:42:15;;;;;;;18.63;10.75;;;8.30;83.90;;;;;;5023531;28;20076;-74
2021/11/06 05:44:40;;;;;;;14.77;8.60;;;8.30;84.00;;;;;;5025870;28;20052;-74
2021/11/06 05:47:06;;;;;;;15.50;9.05;;;8.20;84.10;;;;;;5021700;28;20476;-74
2021/11/06 05:49:32;;;;;;;13.73;8.05;;;8.30;84.10;;;;;;5026065;28;20080;-73
2021/11/06 05:51:57;;;;;;;14.68;9.50;;;8.30;84.20;;;;;;5026691;28;20041;-73
2021/11/06 05:54:23;;;;;;;11.98;7.25;;;8.30;84.30;;;;;;5030526;28;20032;-73
2021/11/06 05:56:48;;;;;;;15.85;9.00;;;8.30;84.40;;;;;;5015487;28;20549;-74
2021/11/06 05:59:14;;;;;;;17.50;10.77;;;8.30;84.40;;;;;;5011983;28;20488;-73
2021/11/06 06:01:40;;;;;;;16.80;9.65;;;8.30;84.50;;;;;;5026495;28;20034;-73
2021/11/06 06:04:05;;;;;;;14.82;8.65;;;8.30;84.50;;;;;;5016962;28;20026;-73
2021/11/06 06:06:31;;;;;;;13.32;8.27;;;8.30;84.60;;;;;;5017130;28;20773;-74
2021/11/06 06:08:56;;;;;;;16.27;10.23;;;8.40;84.60;;;;;;5014374;28;20030;-75
2021/11/06 06:11:22;;;;;;;15.20;9.48;;;8.40;84.70;;;;;;5012634;28;20484;-74
2021/11/06 06:13:48;;;;;;;16.17;9.40;;;8.40;84.70;;;;;;5027870;28;20029;-75
2021/11/06 06:16:13;;;;;;;15.77;10.85;;;8.40;84.80;;;;;;5009829;28;20026;-74
2021/11/06 06:18:39;;;;;;;14.45;9.10;;;8.40;84.80;;;;;;5021132;28;20021;-74
2021/11/06 06:21:05;;;;;;;19.25;11.95;;;8.40;84.90;;;;;;5016291;28;20014;-74
2021/11/06 06:23:31;;;;;;;12.73;8.25;;;8.40;85.00;;;;;;5025951;28;20073;-74
2021/11/06 06:25:56;;;;;;;15.25;9.10;;;8.40;85.00;;;;;;5017039;28;20033;-74
2021/11/06 06:28:22;;;;;;;13.88;9.90;;;8.40;85.00;;;;;;5028497;28;20096;-73
2021/11/06 06:30:47;;;;;;;16.27;10.30;;;8.40;85.10;;;;;;5013608;28;20041;-73
2021/11/06 06:33:13;;;;;;;17.33;11.23;;;8.40;85.20;;;;;;5019718;28;20552;-74
2021/11/06 06:35:38;;;;;;;15.00;10.73;;;8.40;85.20;;;;;;5024841;28;20440;-75
2021/11/06 06:38:04;;;;;;;18.05;10.73;;;8.40;85.20;;;;;;5010459;28;20087;-74
2021/11/06 06:40:30;;;;;;;21.15;12.90;;;8.40;85.30;;;;;;5016080;28;20061;-74
2021/11/06 06:42:56;;;;;;;18.73;11.65;;;8.30;85.40;;;;;;5022436;28;20030;-73
2021/11/06 06:45:22;;;;;;;17.00;10.25;;;8.30;85.40;;;;;;5018278;28;20040;-73
2021/11/06 06:47:48;;;;;;;15.60;10.27;;;8.40;85.50;;;;;;5011260;28;20562;-73
2021/11/06 06:50:14;;;;;;;17.60;11.50;;;8.40;85.50;;;;;;5016771;28;20096;-74
2021/11/06 06:52:40;;;;;;;14.98;10.07;;;8.40;85.40;;;;;;5022967;28;20433;-74
2021/11/06 06:55:07;;;;;;;16.48;11.65;;;8.30;85.40;;;;;;5027261;28;20056;-74
2021/11/06 06:57:33;;;;;;;12.48;8.75;;;8.40;85.50;;;;;;5017047;28;20022;-74
2021/11/06 06:59:58;;;;;;;9.57;6.75;;;8.40;85.50;;;;;;5024004;28;20547;-74
2021/11/06 07:02:24;;;;;;;17.30;10.18;;;8.40;85.40;;;;;;5027576;28;20435;-73
2021/11/06 07:04:49;;;;;;;15.07;10.50;;;8.40;85.30;;;;;;5021539;28;20021;-74
2021/11/06 07:07:15;;;;;;;14.45;9.90;;;8.40;85.30;;;;;;5022050;28;20041;-74
2021/11/06 07:09:41;;;;;;;14.32;9.05;;;8.40;85.40;;;;;;5012586;28;20022;-74
2021/11/06 07:12:07;;;;;;;13.60;10.57;;;8.50;85.40;;;;;;5062014;28;20038;-74
2021/11/06 07:14:33;;;;;;;15.63;10.63;;;8.50;85.40;;;;;;5044945;28;20018;-74
2021/11/06 07:16:59;;;;;;;14.02;10.00;;;8.50;85.30;;;;;;5021733;28;20388;-73
2021/11/06 07:19:25;;;;;;;15.50;10.20;;;8.50;85.30;;;;;;5022387;28;20026;-74
2021/11/06 07:21:51;;;;;;;16.02;12.18;;;8.50;85.30;;;;;;5027741;28;20034;-74
2021/11/06 07:24:16;;;;;;;16.45;11.73;;;8.40;85.30;;;;;;5013909;28;20032;-73
2021/11/06 07:26:42;;;;;;;15.70;10.52;;;8.50;85.40;;;;;;5029916;28;20061;-73
2021/11/06 07:29:07;;;;;;;16.52;10.85;;;8.40;85.40;;;;;;5018481;28;20488;-73
2021/11/06 07:31:33;;;;;;;16.27;10.52;;;8.40;85.50;;;;;;5027926;28;20053;-73
2021/11/06 07:33:58;;;;;;;17.15;12.13;;;8.40;85.50;;;;;;5027772;28;20041;-73
2021/11/06 07:36:25;;;;;;;16.77;11.48;;;8.50;85.50;;;;;;5027641;28;20571;-73
2021/11/06 07:38:53;;;;;;;14.13;9.15;;;8.50;85.50;;;;;;5012483;28;20109;-73
2021/11/06 07:41:19;;;;;;;14.93;10.20;;;8.50;85.60;;;;;;5049320;28;20026;-73
2021/11/06 07:43:45;;;;;;;16.10;11.98;;;8.50;85.60;;;;;;5032773;28;20029;-72
2021/11/06 07:46:10;;;;;;;19.00;13.18;;;8.50;85.60;;;;;;5025301;28;20029;-72
2021/11/06 07:48:36;;;;;;;17.38;12.45;;;8.50;85.70;;;;;;5026694;28;20112;-72
2021/11/06 07:51:03;;;;;;;16.85;11.48;;;8.50;85.70;;;;;;5031917;28;20116;-72
2021/11/06 07:53:29;;;;;;;19.50;12.48;;;8.50;85.80;;;;;;5031874;28;20040;-72
2021/11/06 07:55:55;;;;;;;18.15;12.68;;;8.50;85.90;;;;;;5032106;28;20033;-73
2021/11/06 07:58:21;;;;;;;14.13;9.35;;;8.60;86.00;;;;;;5019541;28;20540;-72
2021/11/06 08:00:46;;;;;;;14.40;10.82;;;8.60;86.00;;;;;;5027472;28;20057;-73
2021/11/06 08:03:12;;;;;;;17.67;11.18;;;8.60;86.00;;;;;;5017447;28;20503;-73
2021/11/06 08:05:37;;;;;;;19.38;12.30;;;8.60;85.90;;;;;;5029152;28;20432;-73
2021/11/06 08:08:03;;;;;;;13.73;10.00;;;8.60;86.00;;;;;;5029596;28;20025;-72
2021/11/06 08:10:30;;;;;;;19.52;12.88;;;8.60;86.00;;;;;;5014474;28;20080;-72
2021/11/06 08:13:01;;;;;;;14.35;9.63;;;8.60;86.00;;;;;;5025936;28;20128;-72
2021/11/06 08:15:26;;;;;;;11.20;8.38;;;8.70;86.10;;;;;;5058238;28;20040;-72
2021/11/06 08:17:53;;;;;;;15.15;9.73;;;8.70;86.00;;;;;;5024546;28;20038;-73
2021/11/06 08:20:22;;;;;;;15.48;11.15;;;8.70;86.00;;;;;;5047724;28;20108;-73
2021/11/06 08:22:48;;;;;;;17.13;12.55;;;8.70;86.00;;;;;;5030041;28;20086;-84
2021/11/06 08:25:16;;;;;;;16.63;11.38;;;8.70;86.00;;;;;;5025820;28;20030;-85
2021/11/06 08:27:43;;;;;;;15.38;11.05;;;8.70;86.00;;;;;;5015001;28;20030;-80
2021/11/06 08:30:09;;;;;;;12.68;8.30;;;8.70;86.00;;;;;;5021815;28;20484;-83
2021/11/06 08:32:34;;;;;;;15.68;11.82;;;8.80;86.00;;;;;;5030231;28;20038;-83
2021/11/06 08:35:00;;;;;;;12.30;9.65;;;8.80;85.90;;;;;;5030925;28;20148;-84
2021/11/06 08:37:25;;;;;;;17.08;11.27;;;8.80;85.80;;;;;;5023067;28;20022;-83
2021/11/06 08:39:51;;;;;;;14.98;10.57;;;8.80;85.80;;;;;;5022506;28;20461;-83
2021/11/06 08:42:17;;;;;;;15.73;11.18;;;8.80;85.80;;;;;;5026195;28;20047;-84
2021/11/06 08:44:42;;;;;;;13.70;9.10;;;8.90;85.80;;;;;;5030112;28;20539;-83
2021/11/06 08:47:08;;;;;;;11.73;9.07;;;8.90;85.80;;;;;;5024852;28;20108;-83
2021/11/06 08:49:33;;;;;;;17.02;11.95;;;8.90;85.70;;;;;;5028471;28;20025;-83
2021/11/06 08:51:59;;;;;;;11.27;8.38;;;8.90;85.60;;;;;;5027263;28;20038;-83
2021/11/06 08:54:25;;;;;;;10.15;7.15;;;8.90;85.60;;;;;;5026796;28;20080;-83
2021/11/06 08:56:51;;;;;;;14.30;10.40;;;9.00;85.60;;;;;;5025281;28;20053;-84
2021/11/06 08:59:20;;;;;;;13.35;9.13;;;9.00;85.50;;;;;;5030599;28;20044;-84
2021/11/06 09:01:48;;;;;;;14.00;9.65;;;9.00;85.50;;;;;;5027748;28;20437;-83
2021/11/06 09:04:14;;;;;;;10.82;8.43;;;9.00;85.40;;;;;;5033789;28;20131;-84
2021/11/06 09:06:41;;;;;;;14.57;9.77;;;9.10;85.40;;;;;;5026843;28;20444;-83
2021/11/06 09:09:08;;;;;;;10.95;8.35;;;9.10;85.30;;;;;;5027733;28;20032;-83
2021/11/06 09:11:35;;;;;;;9.57;7.75;;;9.10;85.30;;;;;;5025655;28;20033;-84
2021/11/06 09:14:00;;;;;;;11.23;8.27;;;9.20;85.30;;;;;;5027623;28;20056;-83
2021/11/06 09:16:26;;;;;;;11.13;8.07;;;9.20;85.30;;;;;;5024372;28;20476;-84
2021/11/06 09:18:53;;;;;;;10.13;8.18;;;9.20;85.10;;;;;;5026701;28;20115;-84
2021/11/06 09:21:21;;;;;;;9.80;6.63;;;9.20;85.70;;;;;;5026828;28;20026;-83
2021/11/06 09:23:48;;;;;;;11.93;7.65;;;9.30;85.10;;;;;;5025144;28;20024;-84
2021/11/06 09:26:15;;;;;;;9.77;6.00;;;9.30;85.00;;;;;;5020022;28;20021;-83
2021/11/06 09:28:42;;;;;;;9.02;6.72;;;9.40;85.00;;;;;;5027782;28;20044;-89
2021/11/06 09:31:09;;;;;;;12.00;6.97;;;9.40;84.90;;;;;;5059172;28;20017;-88
2021/11/06 09:33:37;;;;;;;10.93;7.20;;;9.40;84.80;;;;;;5026966;28;20080;-87
2021/11/06 09:36:03;;;;;;;12.23;8.43;;;9.50;84.70;;;;;;5034038;28;20055;-87
2021/11/06 09:38:29;;;;;;;11.43;7.95;;;9.50;84.60;;;;;;5026178;28;20026;-90
2021/11/06 09:40:59;;;;;;;10.80;8.30;;;9.50;84.50;;;;;;5030618;28;20079;-87
2021/11/06 09:43:25;;;;;;;11.35;8.15;;;9.50;84.50;;;;;;5028257;28;20029;-87
2021/11/06 09:45:51;;;;;;;7.70;5.85;;;9.50;84.50;;;;;;5030822;28;20026;-87
2021/11/06 09:48:17;;;;;;;11.10;7.45;;;9.60;84.50;;;;;;5022937;28;20033;-87
2021/11/06 09:50:42;;;;;;;12.13;8.20;;;9.70;84.40;;;;;;5011924;28;20481;-86
2021/11/06 09:53:09;;;;;;;10.88;7.50;;;9.70;84.20;;;;;;5020784;28;20037;-85
2021/11/06 09:55:35;;;;;;;9.60;6.78;;;9.70;84.10;;;;;;5023907;28;20022;-84
2021/11/06 09:58:01;;;;;;;9.80;6.28;;;9.80;84.10;;;;;;5062256;28;20033;-87
2021/11/06 10:00:26;;;;;;;12.75;8.23;;;9.80;83.90;;;;;;5020356;28;20032;-87
2021/11/06 10:02:54;;;;;;;10.00;7.38;;;9.80;83.60;;;;;;5021612;28;20064;-85
2021/11/06 10:05:43;;;;;;;10.20;7.30;;;9.80;83.60;;;;;;5026675;28;20071;-86
2021/11/06 10:08:23;;;;;;;8.15;5.57;;;9.90;83.50;;;;;;5024514;28;20470;-86
2021/11/06 10:10:51;;;;;;;10.85;7.55;;;9.90;83.40;;;;;;5052805;28;20034;-87
2021/11/06 10:13:17;;;;;;;10.45;8.18;;;9.90;83.40;;;;;;5025465;28;20477;-87
2021/11/06 10:15:47;;;;;;;11.07;7.35;;;9.90;83.10;;;;;;5022647;28;20059;-86
2021/11/06 10:18:19;;;;;;;9.93;7.25;;;9.90;83.00;;;;;;5063184;28;20017;-85
2021/11/06 10:20:46;;;;;;;9.95;7.32;;;10.00;83.10;;;;;;5017067;28;20451;-86
2021/11/06 10:23:13;;;;;;;7.28;5.45;;;10.00;82.90;;;;;;5058358;28;20044;-85
2021/11/06 10:25:38;;;;;;;7.63;5.00;;;10.00;82.80;;;;;;5023188;28;20064;-86
2021/11/06 10:28:09;;;;;;;9.73;7.00;;;10.10;82.80;;;;;;5027266;28;20033;-85
2021/11/06 10:30:43;;;;;;;11.13;6.10;;;10.10;82.70;;;;;;5062035;28;20017;-85
2021/11/06 10:33:15;;;;;;;11.35;6.00;;;10.10;83.30;;;;;;5030187;28;20033;-85
2021/11/06 10:35:44;;;;;;;9.52;5.70;;;10.10;82.50;;;;;;5026144;28;20044;-85
2021/11/06 10:38:21;;;;;;;8.77;6.25;;;10.20;82.50;;;;;;5036517;28;20555;-85
2021/11/06 10:40:52;;;;;;;12.30;6.75;;;10.20;82.40;;;;;;5020062;28;20033;-82
2021/11/06 10:43:20;;;;;;;10.85;6.80;;;10.30;82.30;;;;;;5020972;28;20389;-87
2021/11/06 10:45:57;;;;;;;9.50;5.18;;;10.30;82.00;;;;;;5025068;28;20080;-84
2021/11/06 10:48:25;;;;;;;8.40;5.60;;;10.30;82.00;;;;;;5027931;28;20033;-84
2021/11/06 10:50:58;;;;;;;6.70;5.20;;;10.40;82.00;;;;;;5060087;28;20026;-84
2021/11/06 10:53:42;;;;;;;;;;;10.40;81.90;;;;;;5057175;28;20041;-85
2021/11/06 10:56:43;;;;;;;6.10;4.53;;;10.50;81.70;;;;;;5029572;28;19917;-84
2021/11/06 10:59:21;;;;;;;9.75;6.22;;;10.50;81.70;;;;;;5030401;28;20034;-85
2021/11/06 11:01:56;;;;;;;8.85;5.80;;;10.50;81.50;;;;;;5053903;28;20030;-86
2021/11/06 11:04:25;;;;;;;7.07;4.93;;;10.60;81.50;;;;;;5036099;28;20029;-87
2021/11/06 11:06:56;;;;;;;8.60;5.50;;;10.60;81.40;;;;;;5032088;28;20025;-86
2021/11/06 11:09:33;;;;;;;6.75;4.30;;;10.60;81.30;;;;;;5031563;28;20026;-85
2021/11/06 11:12:02;;;;;;;6.72;4.75;;;10.70;81.30;;;;;;5030236;28;20025;-85
2021/11/06 11:14:30;;;;;;;7.55;4.63;;;10.70;81.10;;;;;;5038661;28;20048;-86
2021/11/06 11:16:57;;;;;;;7.22;5.80;;;10.80;81.00;;;;;;5061866;28;20424;-86
2021/11/06 11:19:38;;;;;;;6.63;4.65;;;10.80;80.70;;;;;;5022610;28;20499;-86
2021/11/06 11:22:06;;;;;;;6.28;4.68;;;10.80;80.40;;;;;;5018459;28;20025;-88
2021/11/06 11:24:32;;;;;;;6.22;4.03;;;10.80;80.40;;;;;;5027564;28;20100;-87
2021/11/06 11:26:57;;;;;;;5.97;4.15;;;10.90;80.30;;;;;;5024539;28;20116;-88
2021/11/06 11:29:35;;;;;;;7.72;4.70;;;10.90;80.30;;;;;;5055542;28;20018;-89
2021/11/06 11:32:02;;;;;;;3.83;3.35;;;11.00;80.30;;;;;;5083178;28;20033;-89
2021/11/06 11:34:28;;;;;;;8.85;6.07;;;10.90;80.10;;;;;;5030793;28;20029;-89
2021/11/06 11:36:54;;;;;;;6.30;4.30;;;11.00;79.80;;;;;;5053881;28;20033;-89
2021/11/06 11:39:23;;;;;;;6.50;4.60;;;11.00;79.90;;;;;;5038082;28;20033;-89
2021/11/06 11:42:13;;;;;;;6.25;4.50;;;11.00;79.70;;;;;;5062350;28;20175;-89
2021/11/06 11:44:57;;;;;;;5.68;3.50;;;11.00;79.60;;;;;;5041097;28;20025;-89
2021/11/06 11:48:11;;;;;;;6.13;4.00;;;11.10;79.80;;;;;;5033491;28;20108;-90
2021/11/06 11:50:41;;;;;;;6.80;4.88;;;11.10;79.70;;;;;;5030720;28;20037;-89
2021/11/06 11:53:10;;;;;;;6.65;4.25;;;11.10;79.70;;;;;;5022320;28;20559;-88
2021/11/06 11:55:42;;;;;;;9.52;4.85;;;11.10;79.50;;;;;;5022093;28;20064;-90
2021/11/06 11:58:08;;;;;;;6.82;5.13;;;11.20;79.40;;;;;;5023544;28;20026;-89
2021/11/06 12:00:35;;;;;;;7.28;4.72;;;11.20;79.50;;;;;;5036503;28;20075;-88
2021/11/06 12:03:02;;;;;;;8.15;5.95;;;11.20;79.40;;;;;;5057196;28;20769;-87
2021/11/06 12:05:54;;;;;;;7.05;4.93;;;11.20;79.10;;;;;;5019847;28;20028;-88
2021/11/06 12:08:21;;;;;;;6.47;4.78;;;11.30;79.10;;;;;;5016008;28;20420;-86
2021/11/06 12:10:55;;;;;;;6.60;4.20;;;11.30;79.60;;;;;;5067784;28;20029;-86
2021/11/06 12:13:32;;;;;;;7.10;4.82;;;11.30;78.90;;;;;;5036451;28;20489;-86
2021/11/06 12:16:09;;;;;;;5.55;4.03;;;11.30;78.90;;;;;;5054942;28;20064;-86
2021/11/06 12:18:40;;;;;;;6.38;4.50;;;11.40;78.80;;;;;;5023948;28;20109;-83
2021/11/06 12:21:15;;;;;;;6.80;4.10;;;11.50;78.70;;;;;;5031059;28;20237;-85
2021/11/06 12:23:49;;;;;;;5.88;3.92;;;11.50;78.60;;;;;;5030774;28;20410;-85
2021/11/06 12:26:16;;;;;;;6.07;4.72;;;11.60;78.60;;;;;;5027012;28;20025;-83
2021/11/06 12:28:43;;;;;;;4.90;3.95;;;11.60;78.40;;;;;;5025370;28;20064;-83
2021/11/06 12:31:30;;;;;;;7.20;5.25;;;11.60;78.50;;;;;;5030793;28;20120;-88
2021/11/06 12:33:56;;;;;;;6.30;5.00;;;11.70;78.10;;;;;;5025378;28;20041;-84
2021/11/06 12:36:23;;;;;;;8.25;5.80;;;11.60;77.80;;;;;;5024680;28;20396;-86
2021/11/06 12:38:50;;;;;;;6.38;5.40;;;11.60;77.70;;;;;;5058733;28;20032;-86
2021/11/06 12:41:26;;;;;;;5.50;3.88;;;11.60;77.80;;;;;;5020585;28;20080;-85
2021/11/06 12:43:52;;;;;;;5.78;4.10;;;11.60;78.10;;;;;;5045490;28;20392;-85
2021/11/06 12:46:25;;;;;;;5.20;4.20;;;11.60;78.10;;;;;;5021656;28;20080;-85
2021/11/06 12:48:50;;;;;;;;;;;11.60;78.10;;;;;;5033072;28;20141;-85